sensor_id;sensor_type;location;lat;lon;timestamp;P1;durP1;ratioP1;P2;durP2;ratioP2
24743;SDS011;12844;52.110;5.548;2022-10-04T00:01:28;3.92;;;2.60;;
24743;SDS011;12844;52.110;5.548;2022-10-04T00:04:05;3.83;;;2.78;;
24743;SDS011;12844;52.110;5.548;2022-10-04T00:06:58;3.58;;;2.40;;
24743;SDS011;12844;52.110;5.548;2022-10-04T00:09:42;3.80;;;3.05;;
24743;SDS011;12844;52.110;5.548;2022-10-04T00:14:57;4.57;;;2.83;;
24743;SDS011;12844;52.110;5.548;2022-10-04T00:17:26;3.90;;;2.70;;
24743;SDS011;12844;52.110;5.548;2022-10-04T00:19:55;3.08;;;2.40;;
24743;SDS011;12844;52.110;5.548;2022-10-04T00:22:23;3.85;;;2.47;;
24743;SDS011;12844;52.110;5.548;2022-10-04T00:27:30;3.42;;;2.63;;
24743;SDS011;12844;52.110;5.548;2022-10-04T00:32:28;3.57;;;2.57;;
24743;SDS011;12844;52.110;5.548;2022-10-04T00:40:43;3.20;;;2.30;;
24743;SDS011;12844;52.110;5.548;2022-10-04T00:43:17;4.18;;;2.53;;
24743;SDS011;12844;52.110;5.548;2022-10-04T00:45:51;4.65;;;2.72;;
24743;SDS011;12844;52.110;5.548;2022-10-04T00:48:34;4.30;;;2.67;;
24743;SDS011;12844;52.110;5.548;2022-10-04T00:56:38;3.25;;;2.67;;
24743;SDS011;12844;52.110;5.548;2022-10-04T01:04:59;3.88;;;2.78;;
24743;SDS011;12844;52.110;5.548;2022-10-04T01:07:37;3.85;;;2.80;;
24743;SDS011;12844;52.110;5.548;2022-10-04T01:10:11;3.55;;;2.70;;
24743;SDS011;12844;52.110;5.548;2022-10-04T01:12:50;3.42;;;2.75;;
24743;SDS011;12844;52.110;5.548;2022-10-04T01:20:36;3.80;;;2.80;;
24743;SDS011;12844;52.110;5.548;2022-10-04T01:23:04;3.85;;;2.65;;
24743;SDS011;12844;52.110;5.548;2022-10-04T01:25:43;3.85;;;2.50;;
24743;SDS011;12844;52.110;5.548;2022-10-04T01:28:13;3.78;;;2.65;;
24743;SDS011;12844;52.110;5.548;2022-10-04T01:30:39;3.10;;;2.50;;
24743;SDS011;12844;52.110;5.548;2022-10-04T01:33:06;3.30;;;2.50;;
24743;SDS011;12844;52.110;5.548;2022-10-04T01:35:31;3.85;;;2.83;;
24743;SDS011;12844;52.110;5.548;2022-10-04T01:37:59;3.55;;;2.88;;
24743;SDS011;12844;52.110;5.548;2022-10-04T01:40:31;3.97;;;2.72;;
24743;SDS011;12844;52.110;5.548;2022-10-04T01:43:07;4.20;;;2.90;;
24743;SDS011;12844;52.110;5.548;2022-10-04T01:45:41;4.68;;;2.72;;
24743;SDS011;12844;52.110;5.548;2022-10-04T01:48:11;3.08;;;2.70;;
24743;SDS011;12844;52.110;5.548;2022-10-04T01:53:18;3.05;;;2.28;;
24743;SDS011;12844;52.110;5.548;2022-10-04T01:55:52;3.88;;;2.92;;
24743;SDS011;12844;52.110;5.548;2022-10-04T02:00:55;3.50;;;2.70;;
24743;SDS011;12844;52.110;5.548;2022-10-04T02:03:31;3.45;;;2.55;;
24743;SDS011;12844;52.110;5.548;2022-10-04T02:06:08;2.90;;;2.45;;
24743;SDS011;12844;52.110;5.548;2022-10-04T02:08:39;3.42;;;2.58;;
24743;SDS011;12844;52.110;5.548;2022-10-04T02:11:15;3.55;;;2.58;;
24743;SDS011;12844;52.110;5.548;2022-10-04T02:13:45;3.58;;;2.65;;
24743;SDS011;12844;52.110;5.548;2022-10-04T02:16:14;3.58;;;2.63;;
24743;SDS011;12844;52.110;5.548;2022-10-04T02:18:41;3.70;;;2.60;;
24743;SDS011;12844;52.110;5.548;2022-10-04T02:21:08;4.03;;;2.50;;
24743;SDS011;12844;52.110;5.548;2022-10-04T02:23:35;3.58;;;2.80;;
24743;SDS011;12844;52.110;5.548;2022-10-04T02:26:06;4.05;;;2.70;;
24743;SDS011;12844;52.110;5.548;2022-10-04T02:28:33;3.72;;;2.60;;
24743;SDS011;12844;52.110;5.548;2022-10-04T02:31:00;4.03;;;2.67;;
24743;SDS011;12844;52.110;5.548;2022-10-04T02:33:44;4.05;;;2.70;;
24743;SDS011;12844;52.110;5.548;2022-10-04T02:36:13;3.42;;;2.78;;
24743;SDS011;12844;52.110;5.548;2022-10-04T02:38:41;3.42;;;3.05;;
24743;SDS011;12844;52.110;5.548;2022-10-04T02:41:22;4.18;;;2.58;;
24743;SDS011;12844;52.110;5.548;2022-10-04T02:44:13;3.25;;;2.60;;
24743;SDS011;12844;52.110;5.548;2022-10-04T02:46:55;3.00;;;2.70;;
24743;SDS011;12844;52.110;5.548;2022-10-04T02:49:31;3.03;;;2.72;;
24743;SDS011;12844;52.110;5.548;2022-10-04T02:52:37;3.25;;;2.70;;
24743;SDS011;12844;52.110;5.548;2022-10-04T02:55:10;3.30;;;2.78;;
24743;SDS011;12844;52.110;5.548;2022-10-04T02:57:42;3.90;;;2.70;;
24743;SDS011;12844;52.110;5.548;2022-10-04T03:00:12;3.65;;;2.80;;
24743;SDS011;12844;52.110;5.548;2022-10-04T03:05:32;3.92;;;2.70;;
24743;SDS011;12844;52.110;5.548;2022-10-04T03:07:58;3.08;;;2.50;;
24743;SDS011;12844;52.110;5.548;2022-10-04T03:10:24;3.85;;;2.83;;
24743;SDS011;12844;52.110;5.548;2022-10-04T03:12:49;3.00;;;2.70;;
24743;SDS011;12844;52.110;5.548;2022-10-04T03:15:16;2.90;;;2.60;;
24743;SDS011;12844;52.110;5.548;2022-10-04T03:17:42;3.17;;;2.58;;
24743;SDS011;12844;52.110;5.548;2022-10-04T03:20:08;3.30;;;2.80;;
24743;SDS011;12844;52.110;5.548;2022-10-04T03:22:38;3.75;;;2.80;;
24743;SDS011;12844;52.110;5.548;2022-10-04T03:25:05;2.72;;;2.50;;
24743;SDS011;12844;52.110;5.548;2022-10-04T03:27:39;3.50;;;2.72;;
24743;SDS011;12844;52.110;5.548;2022-10-04T03:30:11;3.10;;;2.80;;
24743;SDS011;12844;52.110;5.548;2022-10-04T03:32:38;2.97;;;2.40;;
24743;SDS011;12844;52.110;5.548;2022-10-04T03:35:04;3.67;;;2.90;;
24743;SDS011;12844;52.110;5.548;2022-10-04T03:37:41;3.25;;;2.58;;
24743;SDS011;12844;52.110;5.548;2022-10-04T03:40:07;3.67;;;2.78;;
24743;SDS011;12844;52.110;5.548;2022-10-04T03:42:34;2.97;;;2.60;;
24743;SDS011;12844;52.110;5.548;2022-10-04T03:45:03;3.35;;;2.80;;
24743;SDS011;12844;52.110;5.548;2022-10-04T03:47:33;3.28;;;2.50;;
24743;SDS011;12844;52.110;5.548;2022-10-04T03:50:03;3.47;;;2.58;;
24743;SDS011;12844;52.110;5.548;2022-10-04T03:52:47;4.05;;;2.75;;
24743;SDS011;12844;52.110;5.548;2022-10-04T03:55:17;3.53;;;2.88;;
24743;SDS011;12844;52.110;5.548;2022-10-04T03:57:43;3.97;;;3.05;;
24743;SDS011;12844;52.110;5.548;2022-10-04T04:00:13;3.40;;;3.03;;
24743;SDS011;12844;52.110;5.548;2022-10-04T04:02:42;3.13;;;2.67;;
24743;SDS011;12844;52.110;5.548;2022-10-04T04:05:42;3.17;;;2.83;;
24743;SDS011;12844;52.110;5.548;2022-10-04T04:08:31;3.63;;;2.75;;
24743;SDS011;12844;52.110;5.548;2022-10-04T04:11:01;3.33;;;2.45;;
24743;SDS011;12844;52.110;5.548;2022-10-04T04:15:59;3.65;;;2.72;;
24743;SDS011;12844;52.110;5.548;2022-10-04T04:18:27;4.10;;;3.20;;
24743;SDS011;12844;52.110;5.548;2022-10-04T04:20:55;4.30;;;2.88;;
24743;SDS011;12844;52.110;5.548;2022-10-04T04:29:20;3.38;;;2.58;;
24743;SDS011;12844;52.110;5.548;2022-10-04T04:32:01;3.38;;;3.00;;
24743;SDS011;12844;52.110;5.548;2022-10-04T04:34:33;3.75;;;3.00;;
24743;SDS011;12844;52.110;5.548;2022-10-04T04:37:12;3.47;;;2.70;;
24743;SDS011;12844;52.110;5.548;2022-10-04T04:39:38;3.00;;;2.70;;
24743;SDS011;12844;52.110;5.548;2022-10-04T04:44:34;3.15;;;2.55;;
24743;SDS011;12844;52.110;5.548;2022-10-04T04:47:23;3.15;;;2.50;;
24743;SDS011;12844;52.110;5.548;2022-10-04T04:49:52;3.97;;;2.70;;
24743;SDS011;12844;52.110;5.548;2022-10-04T04:52:21;4.13;;;2.88;;
24743;SDS011;12844;52.110;5.548;2022-10-04T04:54:50;4.22;;;3.05;;
24743;SDS011;12844;52.110;5.548;2022-10-04T04:57:17;3.15;;;2.60;;
24743;SDS011;12844;52.110;5.548;2022-10-04T04:59:43;3.25;;;2.92;;
24743;SDS011;12844;52.110;5.548;2022-10-04T05:02:28;4.45;;;2.83;;
24743;SDS011;12844;52.110;5.548;2022-10-04T05:10:36;3.35;;;3.05;;
24743;SDS011;12844;52.110;5.548;2022-10-04T05:13:14;2.92;;;2.63;;
24743;SDS011;12844;52.110;5.548;2022-10-04T05:15:41;4.07;;;2.70;;
24743;SDS011;12844;52.110;5.548;2022-10-04T05:18:25;4.45;;;2.95;;
24743;SDS011;12844;52.110;5.548;2022-10-04T05:20:57;4.22;;;2.78;;
24743;SDS011;12844;52.110;5.548;2022-10-04T05:23:43;3.97;;;2.78;;
24743;SDS011;12844;52.110;5.548;2022-10-04T05:26:10;3.53;;;2.60;;
24743;SDS011;12844;52.110;5.548;2022-10-04T05:28:37;3.15;;;2.75;;
24743;SDS011;12844;52.110;5.548;2022-10-04T05:31:46;3.17;;;2.85;;
24743;SDS011;12844;52.110;5.548;2022-10-04T05:34:05;3.95;;;2.90;;
24743;SDS011;12844;52.110;5.548;2022-10-04T05:42:13;3.53;;;2.90;;
24743;SDS011;12844;52.110;5.548;2022-10-04T05:44:53;3.33;;;2.90;;
24743;SDS011;12844;52.110;5.548;2022-10-04T05:47:21;3.10;;;2.70;;
24743;SDS011;12844;52.110;5.548;2022-10-04T05:49:57;3.40;;;3.05;;
24743;SDS011;12844;52.110;5.548;2022-10-04T05:52:37;3.38;;;2.78;;
24743;SDS011;12844;52.110;5.548;2022-10-04T05:55:46;4.00;;;2.70;;
24743;SDS011;12844;52.110;5.548;2022-10-04T06:03:53;3.78;;;2.90;;
24743;SDS011;12844;52.110;5.548;2022-10-04T06:07:03;3.78;;;2.72;;
24743;SDS011;12844;52.110;5.548;2022-10-04T06:09:49;3.67;;;3.10;;
24743;SDS011;12844;52.110;5.548;2022-10-04T06:12:45;3.53;;;3.00;;
24743;SDS011;12844;52.110;5.548;2022-10-04T06:26:06;3.03;;;2.75;;
24743;SDS011;12844;52.110;5.548;2022-10-04T06:28:46;3.20;;;2.90;;
24743;SDS011;12844;52.110;5.548;2022-10-04T06:38:56;3.33;;;3.03;;
24743;SDS011;12844;52.110;5.548;2022-10-04T06:44:27;3.85;;;3.00;;
24743;SDS011;12844;52.110;5.548;2022-10-04T06:55:50;4.95;;;3.20;;
24743;SDS011;12844;52.110;5.548;2022-10-04T07:04:08;3.42;;;2.90;;
24743;SDS011;12844;52.110;5.548;2022-10-04T07:10:05;3.70;;;3.30;;
24743;SDS011;12844;52.110;5.548;2022-10-04T07:12:39;5.25;;;2.88;;
24743;SDS011;12844;52.110;5.548;2022-10-04T07:15:11;4.35;;;2.97;;
24743;SDS011;12844;52.110;5.548;2022-10-04T07:17:43;4.47;;;3.30;;
24743;SDS011;12844;52.110;5.548;2022-10-04T07:20:44;4.30;;;2.97;;
24743;SDS011;12844;52.110;5.548;2022-10-04T07:23:09;4.25;;;2.88;;
24743;SDS011;12844;52.110;5.548;2022-10-04T07:25:46;5.07;;;3.33;;
24743;SDS011;12844;52.110;5.548;2022-10-04T07:28:16;6.72;;;2.65;;
24743;SDS011;12844;52.110;5.548;2022-10-04T07:31:13;6.00;;;3.08;;
24743;SDS011;12844;52.110;5.548;2022-10-04T07:33:48;5.38;;;3.00;;
24743;SDS011;12844;52.110;5.548;2022-10-04T07:36:19;5.40;;;3.15;;
24743;SDS011;12844;52.110;5.548;2022-10-04T07:39:10;4.57;;;3.00;;
24743;SDS011;12844;52.110;5.548;2022-10-04T07:41:48;4.25;;;2.85;;
24743;SDS011;12844;52.110;5.548;2022-10-04T07:49:55;5.85;;;3.10;;
24743;SDS011;12844;52.110;5.548;2022-10-04T08:03:44;5.30;;;3.15;;
24743;SDS011;12844;52.110;5.548;2022-10-04T08:06:35;5.68;;;3.40;;
24743;SDS011;12844;52.110;5.548;2022-10-04T08:12:04;4.93;;;3.05;;
24743;SDS011;12844;52.110;5.548;2022-10-04T08:22:27;4.50;;;2.83;;
24743;SDS011;12844;52.110;5.548;2022-10-04T08:25:25;5.55;;;3.08;;
24743;SDS011;12844;52.110;5.548;2022-10-04T08:28:11;8.73;;;3.15;;
24743;SDS011;12844;52.110;5.548;2022-10-04T08:34:14;3.30;;;2.90;;
24743;SDS011;12844;52.110;5.548;2022-10-04T08:36:55;4.35;;;3.20;;
24743;SDS011;12844;52.110;5.548;2022-10-04T09:06:05;4.07;;;2.90;;
24743;SDS011;12844;52.110;5.548;2022-10-04T09:19:52;5.22;;;3.10;;
24743;SDS011;12844;52.110;5.548;2022-10-04T09:22:44;3.50;;;2.85;;
24743;SDS011;12844;52.110;5.548;2022-10-04T09:30:22;6.72;;;3.08;;
24743;SDS011;12844;52.110;5.548;2022-10-04T09:46:46;5.78;;;3.00;;
24743;SDS011;12844;52.110;5.548;2022-10-04T09:53:19;4.85;;;3.08;;
24743;SDS011;12844;52.110;5.548;2022-10-04T09:55:27;4.95;;;3.40;;
24743;SDS011;12844;52.110;5.548;2022-10-04T09:58:30;6.15;;;3.20;;
24743;SDS011;12844;52.110;5.548;2022-10-04T10:11:43;5.97;;;3.30;;
24743;SDS011;12844;52.110;5.548;2022-10-04T10:17:42;6.03;;;3.63;;
24743;SDS011;12844;52.110;5.548;2022-10-04T10:20:30;6.20;;;3.88;;
24743;SDS011;12844;52.110;5.548;2022-10-04T10:39:47;5.53;;;3.80;;
24743;SDS011;12844;52.110;5.548;2022-10-04T10:52:59;7.05;;;3.88;;
24743;SDS011;12844;52.110;5.548;2022-10-04T10:56:01;6.40;;;3.70;;
24743;SDS011;12844;52.110;5.548;2022-10-04T11:01:40;8.98;;;4.10;;
24743;SDS011;12844;52.110;5.548;2022-10-04T11:15:38;8.70;;;3.83;;
24743;SDS011;12844;52.110;5.548;2022-10-04T11:24:00;10.00;;;4.32;;
24743;SDS011;12844;52.110;5.548;2022-10-04T11:32:53;7.15;;;3.63;;
24743;SDS011;12844;52.110;5.548;2022-10-04T11:35:46;9.18;;;4.15;;
24743;SDS011;12844;52.110;5.548;2022-10-04T11:49:58;6.18;;;3.80;;
24743;SDS011;12844;52.110;5.548;2022-10-04T11:52:42;7.25;;;4.10;;
24743;SDS011;12844;52.110;5.548;2022-10-04T11:55:27;6.45;;;4.00;;
24743;SDS011;12844;52.110;5.548;2022-10-04T11:58:08;7.38;;;3.85;;
24743;SDS011;12844;52.110;5.548;2022-10-04T12:00:58;8.75;;;3.65;;
24743;SDS011;12844;52.110;5.548;2022-10-04T12:17:53;6.00;;;3.47;;
24743;SDS011;12844;52.110;5.548;2022-10-04T12:31:48;8.88;;;3.83;;
24743;SDS011;12844;52.110;5.548;2022-10-04T12:34:23;6.43;;;3.90;;
24743;SDS011;12844;52.110;5.548;2022-10-04T12:42:20;7.95;;;3.65;;
24743;SDS011;12844;52.110;5.548;2022-10-04T12:45:13;6.97;;;3.70;;
24743;SDS011;12844;52.110;5.548;2022-10-04T12:50:42;6.47;;;3.58;;
24743;SDS011;12844;52.110;5.548;2022-10-04T12:58:10;7.78;;;3.50;;
24743;SDS011;12844;52.110;5.548;2022-10-04T13:01:01;5.43;;;3.00;;
24743;SDS011;12844;52.110;5.548;2022-10-04T13:03:56;5.57;;;3.22;;
24743;SDS011;12844;52.110;5.548;2022-10-04T13:07:40;6.35;;;3.35;;
24743;SDS011;12844;52.110;5.548;2022-10-04T13:09:46;5.93;;;3.05;;
24743;SDS011;12844;52.110;5.548;2022-10-04T13:12:25;5.90;;;3.38;;
24743;SDS011;12844;52.110;5.548;2022-10-04T13:27:59;8.18;;;3.78;;
24743;SDS011;12844;52.110;5.548;2022-10-04T13:30:44;5.53;;;3.23;;
24743;SDS011;12844;52.110;5.548;2022-10-04T13:38:54;5.70;;;3.13;;
24743;SDS011;12844;52.110;5.548;2022-10-04T13:41:50;5.70;;;3.30;;
24743;SDS011;12844;52.110;5.548;2022-10-04T13:50:34;4.45;;;2.92;;
24743;SDS011;12844;52.110;5.548;2022-10-04T13:59:32;6.50;;;3.40;;
24743;SDS011;12844;52.110;5.548;2022-10-04T14:05:18;3.75;;;2.90;;
24743;SDS011;12844;52.110;5.548;2022-10-04T14:14:13;5.05;;;3.15;;
24743;SDS011;12844;52.110;5.548;2022-10-04T14:25:39;4.70;;;2.90;;
24743;SDS011;12844;52.110;5.548;2022-10-04T14:31:49;5.18;;;3.10;;
24743;SDS011;12844;52.110;5.548;2022-10-04T14:34:55;4.72;;;2.97;;
24743;SDS011;12844;52.110;5.548;2022-10-04T14:43:32;4.95;;;3.10;;
24743;SDS011;12844;52.110;5.548;2022-10-04T14:49:18;4.10;;;2.90;;
24743;SDS011;12844;52.110;5.548;2022-10-04T14:57:20;5.18;;;3.25;;
24743;SDS011;12844;52.110;5.548;2022-10-04T15:02:46;6.95;;;3.08;;
24743;SDS011;12844;52.110;5.548;2022-10-04T15:08:33;5.30;;;3.10;;
24743;SDS011;12844;52.110;5.548;2022-10-04T15:13:34;6.97;;;3.10;;
24743;SDS011;12844;52.110;5.548;2022-10-04T15:16:18;4.82;;;3.10;;
24743;SDS011;12844;52.110;5.548;2022-10-04T15:19:11;5.47;;;3.30;;
24743;SDS011;12844;52.110;5.548;2022-10-04T15:22:13;3.72;;;2.75;;
24743;SDS011;12844;52.110;5.548;2022-10-04T15:24:48;6.85;;;3.50;;
24743;SDS011;12844;52.110;5.548;2022-10-04T15:36:07;4.35;;;3.47;;
24743;SDS011;12844;52.110;5.548;2022-10-04T15:38:43;5.30;;;3.10;;
24743;SDS011;12844;52.110;5.548;2022-10-04T15:41:18;6.38;;;3.35;;
24743;SDS011;12844;52.110;5.548;2022-10-04T15:51:57;5.07;;;3.00;;
24743;SDS011;12844;52.110;5.548;2022-10-04T15:54:42;5.82;;;3.13;;
24743;SDS011;12844;52.110;5.548;2022-10-04T16:00:12;4.32;;;2.78;;
24743;SDS011;12844;52.110;5.548;2022-10-04T16:03:14;4.63;;;2.95;;
24743;SDS011;12844;52.110;5.548;2022-10-04T16:08:36;5.50;;;3.08;;
24743;SDS011;12844;52.110;5.548;2022-10-04T16:14:19;4.00;;;2.60;;
24743;SDS011;12844;52.110;5.548;2022-10-04T16:20:05;5.43;;;2.58;;
24743;SDS011;12844;52.110;5.548;2022-10-04T16:25:54;5.13;;;2.75;;
24743;SDS011;12844;52.110;5.548;2022-10-04T16:34:07;4.93;;;2.72;;
24743;SDS011;12844;52.110;5.548;2022-10-04T16:36:59;3.75;;;2.70;;
24743;SDS011;12844;52.110;5.548;2022-10-04T16:45:35;5.97;;;2.92;;
24743;SDS011;12844;52.110;5.548;2022-10-04T16:56:14;5.35;;;3.08;;
24743;SDS011;12844;52.110;5.548;2022-10-04T16:58:51;4.72;;;3.17;;
24743;SDS011;12844;52.110;5.548;2022-10-04T17:09:49;5.90;;;2.78;;
24743;SDS011;12844;52.110;5.548;2022-10-04T17:15:46;3.80;;;2.60;;
24743;SDS011;12844;52.110;5.548;2022-10-04T17:18:30;5.70;;;3.00;;
24743;SDS011;12844;52.110;5.548;2022-10-04T17:24:15;18.08;;;3.72;;
24743;SDS011;12844;52.110;5.548;2022-10-04T17:27:00;7.18;;;2.70;;
24743;SDS011;12844;52.110;5.548;2022-10-04T17:32:34;5.47;;;2.90;;
24743;SDS011;12844;52.110;5.548;2022-10-04T17:39:22;7.32;;;3.47;;
24743;SDS011;12844;52.110;5.548;2022-10-04T17:44:26;4.10;;;3.40;;
24743;SDS011;12844;52.110;5.548;2022-10-04T17:50:10;5.33;;;4.20;;
24743;SDS011;12844;52.110;5.548;2022-10-04T17:53:00;7.60;;;4.70;;
24743;SDS011;12844;52.110;5.548;2022-10-04T17:55:54;4.10;;;3.45;;
24743;SDS011;12844;52.110;5.548;2022-10-04T17:58:23;8.60;;;3.80;;
24743;SDS011;12844;52.110;5.548;2022-10-04T18:00:59;5.30;;;3.85;;
24743;SDS011;12844;52.110;5.548;2022-10-04T18:06:18;5.68;;;3.85;;
24743;SDS011;12844;52.110;5.548;2022-10-04T18:09:03;4.22;;;3.63;;
24743;SDS011;12844;52.110;5.548;2022-10-04T18:11:47;5.15;;;3.67;;
24743;SDS011;12844;52.110;5.548;2022-10-04T18:23:13;4.07;;;3.30;;
24743;SDS011;12844;52.110;5.548;2022-10-04T18:25:48;4.93;;;3.58;;
24743;SDS011;12844;52.110;5.548;2022-10-04T18:28:19;7.03;;;3.60;;
24743;SDS011;12844;52.110;5.548;2022-10-04T18:33:18;5.25;;;3.72;;
24743;SDS011;12844;52.110;5.548;2022-10-04T18:35:52;4.25;;;3.42;;
24743;SDS011;12844;52.110;5.548;2022-10-04T18:38:27;4.85;;;3.30;;
24743;SDS011;12844;52.110;5.548;2022-10-04T18:40:54;5.85;;;3.22;;
24743;SDS011;12844;52.110;5.548;2022-10-04T18:43:24;4.05;;;3.30;;
24743;SDS011;12844;52.110;5.548;2022-10-04T18:48:39;5.68;;;3.50;;
24743;SDS011;12844;52.110;5.548;2022-10-04T18:59:32;6.20;;;3.15;;
24743;SDS011;12844;52.110;5.548;2022-10-04T19:02:31;4.88;;;3.20;;
24743;SDS011;12844;52.110;5.548;2022-10-04T19:05:14;4.55;;;3.45;;
24743;SDS011;12844;52.110;5.548;2022-10-04T19:10:25;5.40;;;3.37;;
24743;SDS011;12844;52.110;5.548;2022-10-04T19:16:10;4.32;;;3.47;;
24743;SDS011;12844;52.110;5.548;2022-10-04T19:19:00;5.22;;;3.30;;
24743;SDS011;12844;52.110;5.548;2022-10-04T19:21:43;3.95;;;3.08;;
24743;SDS011;12844;52.110;5.548;2022-10-04T19:24:27;5.85;;;3.50;;
24743;SDS011;12844;52.110;5.548;2022-10-04T19:30:20;4.72;;;3.40;;
24743;SDS011;12844;52.110;5.548;2022-10-04T19:38:06;3.47;;;2.90;;
24743;SDS011;12844;52.110;5.548;2022-10-04T19:40:46;5.53;;;3.20;;
24743;SDS011;12844;52.110;5.548;2022-10-04T19:46:26;6.43;;;3.47;;
24743;SDS011;12844;52.110;5.548;2022-10-04T19:49:11;5.43;;;3.33;;
24743;SDS011;12844;52.110;5.548;2022-10-04T19:51:51;4.45;;;3.30;;
24743;SDS011;12844;52.110;5.548;2022-10-04T19:54:33;6.35;;;3.50;;
24743;SDS011;12844;52.110;5.548;2022-10-04T19:57:03;5.82;;;3.40;;
24743;SDS011;12844;52.110;5.548;2022-10-04T19:59:40;5.85;;;3.20;;
24743;SDS011;12844;52.110;5.548;2022-10-04T20:02:12;5.82;;;3.92;;
24743;SDS011;12844;52.110;5.548;2022-10-04T20:04:38;7.88;;;3.60;;
24743;SDS011;12844;52.110;5.548;2022-10-04T20:18:00;5.55;;;3.33;;
24743;SDS011;12844;52.110;5.548;2022-10-04T20:23:08;5.72;;;3.40;;
24743;SDS011;12844;52.110;5.548;2022-10-04T20:30:54;7.40;;;4.30;;
24743;SDS011;12844;52.110;5.548;2022-10-04T20:36:01;8.43;;;4.38;;
24743;SDS011;12844;52.110;5.548;2022-10-04T20:43:53;6.20;;;3.80;;
24743;SDS011;12844;52.110;5.548;2022-10-04T20:46:38;6.40;;;4.18;;
24743;SDS011;12844;52.110;5.548;2022-10-04T20:49:04;5.50;;;4.00;;
24743;SDS011;12844;52.110;5.548;2022-10-04T20:51:46;6.00;;;3.28;;
24743;SDS011;12844;52.110;5.548;2022-10-04T20:54:16;5.90;;;3.53;;
24743;SDS011;12844;52.110;5.548;2022-10-04T20:56:47;5.53;;;3.40;;
24743;SDS011;12844;52.110;5.548;2022-10-04T20:59:14;5.13;;;3.25;;
24743;SDS011;12844;52.110;5.548;2022-10-04T21:01:41;5.47;;;3.67;;
24743;SDS011;12844;52.110;5.548;2022-10-04T21:04:24;5.63;;;4.10;;
24743;SDS011;12844;52.110;5.548;2022-10-04T21:06:59;5.88;;;3.58;;
24743;SDS011;12844;52.110;5.548;2022-10-04T21:09:32;4.97;;;3.00;;
24743;SDS011;12844;52.110;5.548;2022-10-04T21:12:00;5.80;;;3.83;;
24743;SDS011;12844;52.110;5.548;2022-10-04T21:16:55;6.40;;;3.40;;
24743;SDS011;12844;52.110;5.548;2022-10-04T21:21:56;6.95;;;3.28;;
24743;SDS011;12844;52.110;5.548;2022-10-04T21:24:33;4.93;;;3.33;;
24743;SDS011;12844;52.110;5.548;2022-10-04T21:27:06;6.47;;;3.85;;
24743;SDS011;12844;52.110;5.548;2022-10-04T21:29:34;7.97;;;3.30;;
24743;SDS011;12844;52.110;5.548;2022-10-04T21:32:00;6.03;;;3.13;;
24743;SDS011;12844;52.110;5.548;2022-10-04T21:34:26;6.25;;;3.30;;
24743;SDS011;12844;52.110;5.548;2022-10-04T21:36:51;4.43;;;3.17;;
24743;SDS011;12844;52.110;5.548;2022-10-04T21:39:17;5.80;;;3.28;;
24743;SDS011;12844;52.110;5.548;2022-10-04T21:41:43;5.55;;;3.30;;
24743;SDS011;12844;52.110;5.548;2022-10-04T21:44:09;7.47;;;3.45;;
24743;SDS011;12844;52.110;5.548;2022-10-04T21:46:34;5.45;;;3.28;;
24743;SDS011;12844;52.110;5.548;2022-10-04T21:49:01;5.95;;;3.60;;
24743;SDS011;12844;52.110;5.548;2022-10-04T21:51:27;6.22;;;3.75;;
24743;SDS011;12844;52.110;5.548;2022-10-04T21:53:55;5.15;;;3.35;;
24743;SDS011;12844;52.110;5.548;2022-10-04T21:56:21;6.60;;;3.08;;
24743;SDS011;12844;52.110;5.548;2022-10-04T21:58:47;5.00;;;3.55;;
24743;SDS011;12844;52.110;5.548;2022-10-04T22:01:12;5.97;;;3.20;;
24743;SDS011;12844;52.110;5.548;2022-10-04T22:03:38;4.00;;;3.05;;
24743;SDS011;12844;52.110;5.548;2022-10-04T22:06:03;5.55;;;3.33;;
24743;SDS011;12844;52.110;5.548;2022-10-04T22:08:29;4.53;;;3.03;;
24743;SDS011;12844;52.110;5.548;2022-10-04T22:10:54;4.13;;;2.83;;
24743;SDS011;12844;52.110;5.548;2022-10-04T22:13:20;4.57;;;2.92;;
24743;SDS011;12844;52.110;5.548;2022-10-04T22:15:45;3.97;;;2.90;;
24743;SDS011;12844;52.110;5.548;2022-10-04T22:18:11;4.88;;;3.13;;
24743;SDS011;12844;52.110;5.548;2022-10-04T22:20:36;5.07;;;3.13;;
24743;SDS011;12844;52.110;5.548;2022-10-04T22:23:02;4.60;;;3.08;;
24743;SDS011;12844;52.110;5.548;2022-10-04T22:28:00;5.72;;;3.17;;
24743;SDS011;12844;52.110;5.548;2022-10-04T22:30:27;5.68;;;3.15;;
24743;SDS011;12844;52.110;5.548;2022-10-04T22:32:55;6.65;;;3.17;;
24743;SDS011;12844;52.110;5.548;2022-10-04T22:35:22;5.47;;;3.08;;
24743;SDS011;12844;52.110;5.548;2022-10-04T22:37:49;5.47;;;3.08;;
24743;SDS011;12844;52.110;5.548;2022-10-04T22:40:24;4.43;;;2.95;;
24743;SDS011;12844;52.110;5.548;2022-10-04T22:42:58;4.50;;;3.30;;
24743;SDS011;12844;52.110;5.548;2022-10-04T22:45:28;3.67;;;2.67;;
24743;SDS011;12844;52.110;5.548;2022-10-04T22:47:56;4.53;;;3.00;;
24743;SDS011;12844;52.110;5.548;2022-10-04T22:50:30;4.25;;;2.90;;
24743;SDS011;12844;52.110;5.548;2022-10-04T22:53:06;5.28;;;2.92;;
24743;SDS011;12844;52.110;5.548;2022-10-04T22:55:38;3.88;;;2.78;;
24743;SDS011;12844;52.110;5.548;2022-10-04T22:58:05;5.10;;;3.58;;
24743;SDS011;12844;52.110;5.548;2022-10-04T23:00:31;3.50;;;3.00;;
24743;SDS011;12844;52.110;5.548;2022-10-04T23:02:56;3.83;;;3.05;;
24743;SDS011;12844;52.110;5.548;2022-10-04T23:05:22;3.90;;;2.92;;
24743;SDS011;12844;52.110;5.548;2022-10-04T23:07:47;4.25;;;3.05;;
24743;SDS011;12844;52.110;5.548;2022-10-04T23:10:14;5.32;;;3.35;;
24743;SDS011;12844;52.110;5.548;2022-10-04T23:12:45;5.43;;;3.00;;
24743;SDS011;12844;52.110;5.548;2022-10-04T23:15:13;4.63;;;3.35;;
24743;SDS011;12844;52.110;5.548;2022-10-04T23:17:41;3.97;;;2.97;;
24743;SDS011;12844;52.110;5.548;2022-10-04T23:20:14;5.57;;;3.80;;
24743;SDS011;12844;52.110;5.548;2022-10-04T23:22:51;5.13;;;3.72;;
24743;SDS011;12844;52.110;5.548;2022-10-04T23:25:27;4.95;;;3.30;;
24743;SDS011;12844;52.110;5.548;2022-10-04T23:27:55;4.57;;;3.65;;
24743;SDS011;12844;52.110;5.548;2022-10-04T23:30:24;4.25;;;3.17;;
24743;SDS011;12844;52.110;5.548;2022-10-04T23:32:51;4.65;;;3.13;;
24743;SDS011;12844;52.110;5.548;2022-10-04T23:35:23;4.40;;;3.03;;
24743;SDS011;12844;52.110;5.548;2022-10-04T23:37:50;4.22;;;2.92;;
24743;SDS011;12844;52.110;5.548;2022-10-04T23:40:18;3.63;;;3.33;;
24743;SDS011;12844;52.110;5.548;2022-10-04T23:42:45;4.65;;;3.33;;
24743;SDS011;12844;52.110;5.548;2022-10-04T23:45:23;3.92;;;3.33;;
24743;SDS011;12844;52.110;5.548;2022-10-04T23:47:51;3.60;;;3.20;;
24743;SDS011;12844;52.110;5.548;2022-10-04T23:50:20;3.90;;;3.17;;
24743;SDS011;12844;52.110;5.548;2022-10-04T23:52:53;4.13;;;3.25;;
24743;SDS011;12844;52.110;5.548;2022-10-04T23:55:22;4.60;;;3.13;;
24743;SDS011;12844;52.110;5.548;2022-10-04T23:57:51;3.45;;;2.92;;
